Time;durP1;ratioP1;P1;durP2;ratioP2;P2;SDS_P1;SDS_P2;PMS_P1;PMS_P2;Temp;Humidity;BMP_temperature;BMP_pressure;BME280_temperature;BME280_humidity;BME280_pressure;Samples;Min_cycle;Max_cycle;Signal;HPM_P1;HPM_P2
2022/12/25 00:00:54;;;;;;;35.42;9.32;;;;;;;8.75;100.00;101244.06;5049273;28;20231;-77
2022/12/25 00:03:19;;;;;;;36.97;10.18;;;;;;;8.78;100.00;101238.91;5058281;28;20033;-78
2022/12/25 00:05:45;;;;;;;34.28;9.60;;;;;;;8.78;100.00;101245.88;5052921;28;20108;-77
2022/12/25 00:08:10;;;;;;;26.88;9.15;;;;;;;8.80;100.00;101246.81;5047749;28;20025;-77
2022/12/25 00:10:35;;;;;;;36.53;10.60;;;;;;;8.78;100.00;101253.75;5052094;28;20033;-76
2022/12/25 00:13:01;;;;;;;38.38;10.27;;;;;;;8.82;100.00;101254.72;5051946;28;20090;-77
2022/12/25 00:15:27;;;;;;;30.27;10.68;;;;;;;8.77;100.00;101234.47;5059982;28;20387;-76
2022/12/25 00:17:52;;;;;;;33.22;10.25;;;;;;;8.73;100.00;101232.63;5068809;28;20473;-76
2022/12/25 00:20:18;;;;;;;27.85;9.98;;;;;;;8.70;100.00;101227.28;5053938;28;20033;-76
2022/12/25 00:22:43;;;;;;;28.55;11.05;;;;;;;8.71;100.00;101231.69;5050264;28;20546;-77
2022/12/25 00:25:09;;;;;;;31.23;10.10;;;;;;;8.68;100.00;101231.59;5050132;28;20036;-77
2022/12/25 00:27:36;;;;;;;31.20;12.05;;;;;;;8.65;100.00;101236.75;5046167;28;20029;-78
2022/12/25 00:30:03;;;;;;;41.65;12.15;;;;;;;8.67;100.00;101242.94;5054711;28;20433;-78
2022/12/25 00:32:28;;;;;;;30.60;11.77;;;;;;;8.64;100.00;101242.84;5038927;28;20382;-78
2022/12/25 00:34:53;;;;;;;31.33;11.32;;;;;;;8.63;100.00;101248.94;5042576;28;20025;-77
2022/12/25 00:37:19;;;;;;;34.85;10.98;;;;;;;8.63;100.00;101243.69;5036017;28;20045;-76
2022/12/25 00:39:47;;;;;;;36.70;11.73;;;;;;;8.63;100.00;101237.53;5048281;28;20114;-75
2022/12/25 00:42:18;;;;;;;32.00;11.77;;;;;;;8.62;100.00;101251.50;5049960;28;20037;-74
2022/12/25 00:44:47;;;;;;;31.13;11.95;;;;;;;8.58;100.00;101246.16;5055186;28;20024;-77
2022/12/25 00:47:13;;;;;;;38.35;12.15;;;;;;;8.60;100.00;101241.84;5039934;28;20130;-76
2022/12/25 00:49:38;;;;;;;32.50;12.23;;;;;;;8.59;100.00;101242.69;5045408;28;20048;-77
2022/12/25 00:52:03;;;;;;;35.58;12.23;;;;;;;8.61;100.00;101240.09;5051792;28;20059;-77
2022/12/25 00:54:29;;;;;;;38.40;12.10;;;;;;;8.61;100.00;101245.34;5049130;28;20060;-76
2022/12/25 00:56:54;;;;;;;41.25;13.55;;;;;;;8.64;100.00;101250.72;5049775;28;20037;-76
2022/12/25 00:59:19;;;;;;;36.10;12.48;;;;;;;8.63;100.00;101251.56;5052594;28;20025;-76
2022/12/25 01:01:45;;;;;;;37.92;12.15;;;;;;;8.61;100.00;101255.84;5008566;28;1085782;-78
2022/12/25 01:04:11;;;;;;;36.40;12.60;;;;;;;8.62;100.00;101248.88;5049703;28;20029;-77
2022/12/25 01:06:36;;;;;;;36.13;13.70;;;;;;;8.58;100.00;101266.25;5058124;28;20029;-76
2022/12/25 01:11:46;;;;;;;37.60;13.25;;;;;;;8.56;100.00;101258.34;5049296;28;20098;-77
2022/12/25 01:14:12;;;;;;;30.02;12.82;;;;;;;8.54;100.00;101252.13;5055599;28;20045;-77
2022/12/25 01:16:37;;;;;;;33.72;12.80;;;;;;;8.56;100.00;101252.19;5054340;28;20104;-76
2022/12/25 01:19:03;;;;;;;35.08;13.13;;;;;;;8.54;100.00;101243.41;5044116;28;20040;-77
2022/12/25 01:21:28;;;;;;;33.25;13.02;;;;;;;8.51;100.00;101244.19;5050328;28;20033;-76
2022/12/25 01:23:54;;;;;;;44.38;14.40;;;;;;;8.52;100.00;101245.97;5050608;28;20021;-76
2022/12/25 01:26:22;;;;;;;37.70;12.80;;;;;;;8.49;100.00;101224.00;5051947;28;20108;-76
2022/12/25 01:28:48;;;;;;;38.30;12.95;;;;;;;8.46;100.00;101229.16;5050040;28;20028;-77
2022/12/25 01:31:15;;;;;;;38.47;13.15;;;;;;;8.44;100.00;101236.94;5064614;28;20025;-77
2022/12/25 01:33:42;;;;;;;38.22;14.80;;;;;;;8.42;100.00;101236.91;5048388;28;20040;-75
2022/12/25 01:36:25;;;;;;;36.08;13.20;;;;;;;8.42;100.00;101242.16;5050423;28;20468;-76
2022/12/25 01:38:53;;;;;;;37.05;14.88;;;;;;;8.45;100.00;101246.63;5048191;28;20029;-77
2022/12/25 01:41:20;;;;;;;39.95;14.10;;;;;;;8.45;100.00;101244.00;5045048;28;20041;-75
2022/12/25 01:44:01;;;;;;;32.35;13.52;;;;;;;8.44;100.00;101242.19;5037428;28;20040;-77
2022/12/25 01:46:26;;;;;;;44.97;15.25;;;;;;;8.42;100.00;101244.78;5043957;28;20063;-77
2022/12/25 01:48:54;;;;;;;43.95;14.35;;;;;;;8.47;100.00;101246.69;5052810;28;20033;-76
2022/12/25 01:51:36;;;;;;;36.22;13.23;;;;;;;8.43;100.00;101238.66;5057137;28;20528;-77
2022/12/25 01:54:07;;;;;;;31.30;13.65;;;;;;;8.48;100.00;101246.72;5050909;28;20032;-76
2022/12/25 01:56:35;;;;;;;40.72;13.77;;;;;;;8.48;100.00;101254.59;5049532;28;20025;-77
2022/12/25 01:59:03;;;;;;;35.45;13.50;;;;;;;8.52;100.00;101247.69;5051689;28;20049;-77
2022/12/25 02:01:28;;;;;;;27.08;13.10;;;;;;;8.58;100.00;101255.75;5053372;28;20041;-76
2022/12/25 02:04:03;;;;;;;32.10;13.35;;;;;;;8.59;100.00;101258.44;5059398;28;20093;-74
2022/12/25 02:06:29;;;;;;;39.10;14.48;;;;;;;8.59;100.00;101254.94;5037485;28;20037;-77
2022/12/25 02:08:56;;;;;;;41.42;14.13;;;;;;;8.60;100.00;101249.72;5056054;28;20033;-76
2022/12/25 02:14:05;;;;;;;30.55;13.88;;;;;;;8.59;100.00;101242.69;5051681;28;20392;-75
2022/12/25 02:16:34;;;;;;;31.35;14.70;;;;;;;8.62;100.00;101244.53;5067307;28;20029;-76
2022/12/25 02:19:15;;;;;;;44.10;14.40;;;;;;;8.63;100.00;101243.69;5066951;28;20017;-76
2022/12/25 02:21:59;;;;;;;41.03;14.18;;;;;;;8.60;100.00;101240.97;5053417;28;20029;-78
2022/12/25 02:24:24;;;;;;;34.75;15.05;;;;;;;8.62;100.00;101241.91;5053232;28;20113;-76
2022/12/25 02:27:02;;;;;;;31.80;14.95;;;;;;;8.65;100.00;101235.88;5051026;28;20103;-76
2022/12/25 02:30:01;;;;;;;42.10;16.60;;;;;;;8.67;100.00;101236.78;5048733;28;20025;-77
2022/12/25 02:32:40;;;;;;;37.67;15.77;;;;;;;8.66;100.00;101233.28;5054833;28;20063;-76
2022/12/25 02:35:16;;;;;;;41.10;15.95;;;;;;;8.69;100.00;101224.63;5055415;28;20030;-75
2022/12/25 02:38:09;;;;;;;31.20;15.35;;;;;;;8.68;100.00;101215.88;5052673;28;20029;-76
2022/12/25 02:40:42;;;;;;;32.67;15.32;;;;;;;8.72;100.00;101209.88;5052879;28;20032;-76
2022/12/25 03:08:35;;;;;;;46.53;20.15;;;;;;;8.85;100.00;101168.25;5047021;28;20110;-77
2022/12/25 03:16:49;;;;;;;49.45;23.08;;;;;;;8.88;100.00;101181.44;5051952;28;20047;-76
2022/12/25 03:16:51;;;;;;;51.90;22.02;;;;;;;8.91;100.00;101179.81;5053275;28;20090;-75
2022/12/25 03:27:33;;;;;;;;;;;;;;;8.94;100.00;101179.88;5051839;28;20106;-76
2022/12/25 03:32:57;;;;;;;39.40;19.13;;;;;;;8.95;100.00;101180.75;5033714;28;20072;-75
2022/12/25 03:36:05;;;;;;;43.30;19.83;;;;;;;8.97;100.00;101176.47;5051521;28;20079;-76
2022/12/25 04:37:34;;;;;;;30.23;13.68;;;;;;;8.98;100.00;101157.25;5051364;28;20043;-75
2022/12/25 04:39:59;;;;;;;29.77;15.00;;;;;;;8.97;100.00;101150.22;5050899;28;20021;-76
2022/12/25 04:42:25;;;;;;;25.73;14.70;;;;;;;8.96;100.00;101161.56;5059460;28;20103;-75
2022/12/25 04:44:50;;;;;;;37.67;15.25;;;;;;;8.94;100.00;101161.50;5051709;28;20436;-75
2022/12/25 04:47:15;;;;;;;25.85;15.15;;;;;;;8.93;100.00;101156.22;5052103;28;20033;-75
2022/12/25 04:49:41;;;;;;;35.28;14.52;;;;;;;8.97;100.00;101155.47;5054230;28;20044;-75
2022/12/25 04:52:06;;;;;;;28.38;13.07;;;;;;;8.92;100.00;101149.19;5050466;28;20029;-75
2022/12/25 04:54:31;;;;;;;27.02;12.57;;;;;;;8.94;100.00;101156.25;5042915;28;20079;-76
2022/12/25 04:56:57;;;;;;;35.88;13.48;;;;;;;8.94;100.00;101151.00;5031418;28;20048;-76
2022/12/25 04:59:22;;;;;;;26.95;12.55;;;;;;;8.89;100.00;101141.25;5050447;28;20029;-76
2022/12/25 05:01:47;;;;;;;29.90;11.27;;;;;;;8.88;100.00;101144.69;5050751;28;20051;-75
2022/12/25 05:04:13;;;;;;;22.98;11.38;;;;;;;8.87;100.00;101143.81;5049789;28;20028;-74
2022/12/25 05:06:39;;;;;;;30.80;12.70;;;;;;;8.87;100.00;101140.28;5044282;28;20064;-75
2022/12/25 05:09:04;;;;;;;26.08;11.90;;;;;;;8.85;100.00;101134.13;5050825;28;20024;-78
2022/12/25 05:11:30;;;;;;;24.60;11.95;;;;;;;8.89;100.00;101144.75;5049546;28;20064;-76
2022/12/25 05:13:57;;;;;;;21.17;10.90;;;;;;;8.91;100.00;101139.53;5050958;28;20468;-76
2022/12/25 05:16:23;;;;;;;26.50;11.38;;;;;;;8.93;100.00;101132.59;5041208;28;20032;-75
2022/12/25 05:18:49;;;;;;;25.05;10.35;;;;;;;8.92;100.00;101143.94;5048291;28;20033;-76
2022/12/25 05:21:15;;;;;;;21.33;10.52;;;;;;;8.90;100.00;101143.03;5048683;28;20029;-75
2022/12/25 05:23:47;;;;;;;22.02;10.95;;;;;;;8.94;100.00;101148.38;5066427;28;20029;-76
2022/12/25 05:26:13;;;;;;;23.02;10.55;;;;;;;8.95;100.00;101149.28;5052611;28;20025;-75
2022/12/25 05:28:38;;;;;;;24.92;11.00;;;;;;;8.97;100.00;101138.81;5032853;28;20474;-75
2022/12/25 05:31:04;;;;;;;23.65;11.20;;;;;;;8.96;100.00;101143.19;5036200;28;20139;-76
2022/12/25 05:33:29;;;;;;;24.58;9.98;;;;;;;8.98;100.00;101141.50;5051319;28;20392;-75
2022/12/25 05:35:54;;;;;;;19.58;9.50;;;;;;;8.95;100.00;101141.41;5051181;28;20083;-75
2022/12/25 05:38:20;;;;;;;23.95;10.50;;;;;;;8.98;100.00;101136.25;5053566;28;20071;-75
2022/12/25 05:40:45;;;;;;;21.35;8.88;;;;;;;8.95;100.00;101136.16;5054035;28;20103;-75
2022/12/25 05:43:10;;;;;;;15.38;8.38;;;;;;;8.92;100.00;101136.06;5063999;28;20036;-75
2022/12/25 05:45:36;;;;;;;20.25;10.13;;;;;;;8.94;100.00;101150.13;5052449;28;20040;-74
2022/12/25 05:48:01;;;;;;;24.50;8.98;;;;;;;8.91;100.00;101136.91;5053367;28;20511;-74
2022/12/25 05:50:26;;;;;;;19.73;9.52;;;;;;;8.91;100.00;101139.53;5050459;28;20141;-76
2022/12/25 05:52:52;;;;;;;22.77;8.43;;;;;;;8.93;100.00;101120.34;5052063;28;20465;-75
2022/12/25 05:55:17;;;;;;;19.25;8.75;;;;;;;8.91;100.00;101124.69;5048800;28;20025;-73
2022/12/25 05:57:42;;;;;;;14.32;7.93;;;;;;;8.91;100.00;101110.66;5055981;28;20029;-74
2022/12/25 06:00:08;;;;;;;20.33;8.90;;;;;;;8.93;100.00;101114.22;5053213;28;20515;-76
2022/12/25 06:02:35;;;;;;;19.15;8.65;;;;;;;8.91;100.00;101113.28;5058806;28;20036;-75
2022/12/25 06:05:01;;;;;;;18.98;8.35;;;;;;;8.90;100.00;101116.78;5053825;28;20085;-77
2022/12/25 06:07:26;;;;;;;17.05;8.65;;;;;;;8.86;100.00;101117.53;5064630;28;20044;-75
2022/12/25 06:09:52;;;;;;;17.30;9.27;;;;;;;8.87;100.00;101114.06;5055787;28;20021;-76
2022/12/25 06:12:17;;;;;;;17.25;9.68;;;;;;;8.86;100.00;101101.81;5053401;28;20033;-74
2022/12/25 06:14:43;;;;;;;21.33;10.38;;;;;;;8.84;100.00;101101.72;5052854;28;20057;-76
2022/12/25 06:17:08;;;;;;;17.42;9.55;;;;;;;8.84;100.00;101095.59;5053616;28;20025;-75
2022/12/25 06:19:33;;;;;;;20.75;10.40;;;;;;;8.85;100.00;101100.00;5052485;28;20071;-77
2022/12/25 06:21:59;;;;;;;21.75;10.68;;;;;;;8.84;100.00;101095.59;5071421;28;20452;-76
2022/12/25 06:24:24;;;;;;;22.20;11.02;;;;;;;8.85;100.00;101100.00;5064384;28;20384;-76
2022/12/25 06:26:49;;;;;;;21.92;12.02;;;;;;;8.82;100.00;101081.53;5053361;28;20032;-73
2022/12/25 06:29:15;;;;;;;23.23;11.35;;;;;;;8.82;100.00;101086.78;5041199;28;20021;-77
2022/12/25 06:31:40;;;;;;;32.60;12.07;;;;;;;8.77;100.00;101079.69;5057751;28;20032;-77
2022/12/25 06:34:06;;;;;;;22.95;12.63;;;;;;;8.77;100.00;101091.91;5040530;28;20496;-77
2022/12/25 06:36:31;;;;;;;25.00;14.05;;;;;;;8.82;100.00;101081.53;5034051;28;20385;-77
2022/12/25 06:39:00;;;;;;;27.50;12.82;;;;;;;8.80;100.00;101070.13;5032547;28;20397;-76
2022/12/25 06:41:28;;;;;;;25.83;12.80;;;;;;;8.80;100.00;101070.13;5045137;28;20101;-76
2022/12/25 06:43:56;;;;;;;27.83;13.38;;;;;;;8.78;100.00;101075.34;5053727;28;20054;-74
2022/12/25 06:46:23;;;;;;;24.55;11.82;;;;;;;8.80;100.00;101070.13;5053267;28;20035;-76
2022/12/25 06:48:49;;;;;;;21.48;9.90;;;;;;;8.76;100.00;101083.16;5051875;28;20025;-77
2022/12/25 06:51:16;;;;;;;23.83;9.35;;;;;;;8.78;100.00;101065.72;5050586;28;20024;-77
2022/12/25 06:53:41;;;;;;;21.02;8.95;;;;;;;8.80;100.00;101064.88;5053847;28;20033;-76
2022/12/25 06:56:14;;;;;;;17.08;8.68;;;;;;;8.82;100.00;101063.16;5044009;28;20025;-75
2022/12/25 06:58:44;;;;;;;14.40;8.05;;;;;;;8.84;100.00;101058.88;5051787;28;20033;-72
2022/12/25 07:01:14;;;;;;;15.00;7.30;;;;;;;8.85;100.00;101061.53;5044848;28;20041;-76
2022/12/25 07:03:42;;;;;;;15.60;7.05;;;;;;;8.90;100.00;101069.53;5048217;28;20507;-74
2022/12/25 07:06:08;;;;;;;15.10;7.00;;;;;;;8.81;100.00;101064.91;5053726;28;20477;-76
2022/12/25 07:08:33;;;;;;;12.48;7.03;;;;;;;8.79;100.00;101056.13;5041910;28;20076;-76
2022/12/25 07:10:59;;;;;;;12.88;6.45;;;;;;;8.78;100.00;101049.09;5057570;28;20024;-73
2022/12/25 07:13:24;;;;;;;13.07;6.45;;;;;;;8.79;100.00;101056.13;5044196;28;20033;-75
2022/12/25 07:15:57;;;;;;;13.45;7.50;;;;;;;8.76;100.00;101054.31;5048397;28;20079;-73
2022/12/25 07:18:23;;;;;;;13.73;7.15;;;;;;;8.77;100.00;101058.69;5044670;28;20438;-72
2022/12/25 07:20:48;;;;;;;15.43;7.50;;;;;;;8.77;100.00;101060.44;5045248;28;20107;-73
2022/12/25 07:23:13;;;;;;;12.25;6.80;;;;;;;8.80;100.00;101070.13;5044187;28;20384;-73
2022/12/25 07:25:39;;;;;;;16.10;7.70;;;;;;;8.77;100.00;101063.06;5044437;28;20376;-73
2022/12/25 07:28:04;;;;;;;15.55;8.10;;;;;;;8.78;100.00;101070.97;5050336;28;20025;-74
2022/12/25 07:30:29;;;;;;;20.40;8.48;;;;;;;8.81;100.00;101087.66;5044307;28;20033;-73
2022/12/25 07:32:56;;;;;;;14.32;8.70;;;;;;;8.82;100.00;101090.31;5046812;28;20028;-73
2022/12/25 07:35:21;;;;;;;17.85;9.00;;;;;;;8.83;100.00;101085.94;5043783;28;20032;-73
2022/12/25 07:37:46;;;;;;;16.83;8.52;;;;;;;8.87;100.00;101095.69;5043467;28;20425;-74
2022/12/25 07:40:12;;;;;;;19.90;8.80;;;;;;;8.86;100.00;101093.94;5046136;28;20029;-74
2022/12/25 07:42:37;;;;;;;16.33;8.60;;;;;;;8.84;100.00;101079.84;5043080;28;20025;-73
2022/12/25 07:45:04;;;;;;;16.67;8.55;;;;;;;8.86;100.00;101078.19;5043159;28;20021;-74
2022/12/25 07:47:29;;;;;;;14.50;7.55;;;;;;;8.85;100.00;101086.91;5042562;28;20044;-74
2022/12/25 07:49:54;;;;;;;13.60;8.10;;;;;;;8.86;100.00;101081.69;5043970;28;20025;-73
2022/12/25 07:52:20;;;;;;;10.80;6.97;;;;;;;8.87;100.00;101072.06;5057664;28;20040;-74
2022/12/25 07:54:45;;;;;;;11.27;7.15;;;;;;;8.85;100.00;101093.00;5044649;28;20021;-74
2022/12/25 07:57:10;;;;;;;13.88;6.38;;;;;;;8.86;100.00;101100.06;5042509;28;20552;-73
2022/12/25 07:59:36;;;;;;;12.63;7.05;;;;;;;8.86;100.00;101102.69;5039818;28;20053;-74
2022/12/25 08:02:04;;;;;;;11.25;6.90;;;;;;;8.82;100.00;101106.06;5043047;28;20053;-75
2022/12/25 08:04:30;;;;;;;12.55;5.90;;;;;;;8.83;100.00;101107.84;5043910;28;20473;-73
2022/12/25 08:06:55;;;;;;;10.18;5.95;;;;;;;8.87;100.00;101100.94;5039411;28;20024;-74
2022/12/25 08:09:20;;;;;;;9.60;6.13;;;;;;;8.88;100.00;101100.09;5058065;28;20297;-74
2022/12/25 08:11:46;;;;;;;11.23;6.00;;;;;;;8.84;100.00;101100.84;5049565;28;20044;-74
2022/12/25 08:14:12;;;;;;;12.15;6.32;;;;;;;8.85;100.00;101110.50;5050173;28;20091;-74
2022/12/25 08:16:41;;;;;;;14.05;6.88;;;;;;;8.88;100.00;101102.72;5046890;28;20029;-73
2022/12/25 08:19:10;;;;;;;9.98;6.15;;;;;;;8.89;100.00;101109.75;5044914;28;20402;-74
2022/12/25 08:21:38;;;;;;;10.13;6.07;;;;;;;8.89;100.00;101104.50;5047669;28;20048;-73
2022/12/25 08:24:04;;;;;;;15.05;6.70;;;;;;;8.91;100.00;101097.53;5037578;28;20025;-74
2022/12/25 08:26:29;;;;;;;11.52;6.72;;;;;;;8.91;100.00;101097.53;5049152;28;20159;-73
2022/12/25 08:28:55;;;;;;;10.18;6.10;;;;;;;8.91;100.00;101087.03;5052857;28;20031;-74
2022/12/25 08:31:23;;;;;;;13.05;7.22;;;;;;;8.93;100.00;101088.88;5039440;28;20059;-75
2022/12/25 08:33:50;;;;;;;18.17;8.82;;;;;;;8.95;100.00;101088.91;5043375;28;20103;-74
2022/12/25 08:36:17;;;;;;;12.30;7.35;;;;;;;8.91;100.00;101087.03;5045040;28;20029;-74
2022/12/25 08:38:42;;;;;;;15.20;7.32;;;;;;;8.89;100.00;101083.50;5040805;28;20033;-74
2022/12/25 08:41:09;;;;;;;16.90;7.60;;;;;;;8.94;100.00;101100.28;5037399;28;20032;-75
2022/12/25 08:43:34;;;;;;;12.48;7.20;;;;;;;8.97;100.00;101096.81;5044400;28;20071;-74
2022/12/25 08:46:00;;;;;;;11.50;5.97;;;;;;;8.95;100.00;101094.16;5046818;28;20052;-74
2022/12/25 08:48:25;;;;;;;9.98;6.03;;;;;;;8.96;100.00;101089.81;5041687;28;20357;-73
2022/12/25 08:50:51;;;;;;;12.85;6.28;;;;;;;8.95;100.00;101088.91;5047231;28;20112;-73
2022/12/25 08:53:17;;;;;;;11.70;5.93;;;;;;;8.97;100.00;101097.72;5048813;28;20052;-73
2022/12/25 08:55:42;;;;;;;11.07;5.95;;;;;;;9.01;100.00;101090.84;5052155;28;20464;-73
2022/12/25 08:58:08;;;;;;;13.35;6.20;;;;;;;9.01;100.00;101102.22;5055528;28;20040;-73
2022/12/25 09:00:34;;;;;;;12.15;6.25;;;;;;;9.01;100.00;101099.59;5050220;28;20044;-73
2022/12/25 09:02:59;;;;;;;15.82;7.55;;;;;;;9.02;100.00;101101.38;5045658;28;20111;-74
2022/12/25 09:05:25;;;;;;;16.02;6.68;;;;;;;9.01;100.00;101099.59;5045459;28;20522;-72
2022/12/25 09:07:50;;;;;;;15.60;7.00;;;;;;;9.00;100.00;101110.03;5045266;28;20107;-73
2022/12/25 09:10:15;;;;;;;10.70;6.30;;;;;;;8.97;100.00;101117.81;5062712;28;20411;-76
2022/12/25 09:12:41;;;;;;;10.23;5.43;;;;;;;8.98;100.00;101120.50;5054025;28;20346;-79
2022/12/25 09:15:06;;;;;;;10.73;6.28;;;;;;;8.97;100.00;101129.22;5055869;28;20025;-76
2022/12/25 09:17:32;;;;;;;11.60;6.75;;;;;;;8.93;100.00;101133.47;5046591;28;20033;-78
2022/12/25 09:19:58;;;;;;;10.43;7.28;;;;;;;8.96;100.00;101130.06;5042225;28;20048;-78
2022/12/25 09:22:24;;;;;;;14.52;7.25;;;;;;;8.95;100.00;101125.66;5050314;28;20442;-75
2022/12/25 09:24:49;;;;;;;13.27;8.40;;;;;;;8.94;100.00;101114.28;5055563;28;20028;-80
2022/12/25 09:27:14;;;;;;;16.00;9.80;;;;;;;8.98;100.00;101131.00;5050970;28;20037;-76
2022/12/25 09:29:40;;;;;;;17.85;9.63;;;;;;;8.92;100.00;101120.31;5049572;28;20480;-72
2022/12/25 09:32:06;;;;;;;20.00;10.82;;;;;;;8.91;100.00;101121.16;5060574;28;20036;-76
2022/12/25 09:34:31;;;;;;;16.27;9.93;;;;;;;8.90;100.00;101111.53;5054611;28;20079;-76
2022/12/25 09:36:57;;;;;;;18.80;9.95;;;;;;;8.91;100.00;101108.03;5054738;28;20348;-76
2022/12/25 09:39:22;;;;;;;22.02;10.07;;;;;;;8.89;100.00;101113.25;5053240;28;20094;-74
2022/12/25 09:41:59;;;;;;;21.17;10.63;;;;;;;8.92;100.00;101107.19;5051913;28;20025;-75
2022/12/25 09:44:32;;;;;;;21.52;10.50;;;;;;;8.90;100.00;101106.28;5050891;28;20048;-75
2022/12/25 09:47:24;;;;;;;15.93;9.23;;;;;;;8.87;100.00;101096.59;5055236;28;20025;-77
2022/12/25 09:50:02;;;;;;;18.95;9.98;;;;;;;8.89;100.00;101088.75;5054145;28;20325;-76
2022/12/25 09:52:49;;;;;;;21.52;9.70;;;;;;;8.85;100.00;101086.91;5060523;28;20611;-74
2022/12/25 09:55:17;;;;;;;20.45;9.77;;;;;;;8.87;100.00;101087.81;5057235;28;20032;-76
2022/12/25 09:57:44;;;;;;;22.10;10.85;;;;;;;8.87;100.00;101095.69;5053748;28;20100;-75
2022/12/25 10:00:15;;;;;;;23.10;10.57;;;;;;;8.86;100.00;101088.69;5052628;28;20035;-76
2022/12/25 10:03:02;;;;;;;21.58;10.25;;;;;;;8.84;100.00;101091.22;5041170;28;20029;-76
2022/12/25 10:06:04;;;;;;;19.45;9.50;;;;;;;8.83;100.00;101084.22;5050299;28;20059;-75
2022/12/25 10:08:55;;;;;;;23.35;10.40;;;;;;;8.83;100.00;101083.31;5054706;28;20354;-75
2022/12/25 10:12:01;;;;;;;17.70;8.98;;;;;;;8.78;100.00;101086.72;5047302;28;20060;-75
2022/12/25 10:14:57;;;;;;;20.23;9.80;;;;;;;8.77;100.00;101079.69;5050385;28;20083;-77
2022/12/25 10:17:39;;;;;;;19.30;9.25;;;;;;;8.75;100.00;101080.50;5044625;28;20051;-77
2022/12/25 10:20:51;;;;;;;19.65;9.52;;;;;;;8.74;100.00;101087.47;5047040;28;20070;-75
2022/12/25 10:23:41;;;;;;;19.00;9.32;;;;;;;8.72;100.00;101070.81;5044975;28;20037;-75
2022/12/25 10:26:17;;;;;;;16.02;9.18;;;;;;;8.73;100.00;101072.56;5048691;28;20033;-74
2022/12/25 10:29:03;;;;;;;18.05;8.95;;;;;;;8.72;100.00;101070.81;5061296;28;20112;-73
2022/12/25 10:31:32;;;;;;;18.40;9.63;;;;;;;8.71;100.00;101061.16;5050403;28;20037;-76
2022/12/25 10:33:58;;;;;;;18.98;9.48;;;;;;;8.72;100.00;101060.31;5078012;28;20071;-75
2022/12/25 10:36:35;;;;;;;17.45;9.48;;;;;;;8.70;100.00;101051.50;5053193;28;20029;-73
2022/12/25 10:39:02;;;;;;;15.90;9.15;;;;;;;8.70;100.00;101056.75;5049855;28;20032;-75
2022/12/25 10:41:41;;;;;;;24.08;10.38;;;;;;;8.68;100.00;101053.22;5044722;28;20037;-76
2022/12/25 10:44:25;;;;;;;23.15;9.60;;;;;;;8.66;100.00;101057.50;5048183;28;20062;-75
2022/12/25 10:47:03;;;;;;;24.65;11.20;;;;;;;8.67;100.00;101055.75;5051963;28;20033;-76
2022/12/25 10:49:32;;;;;;;19.48;10.07;;;;;;;8.67;100.00;101040.03;5041185;28;20043;-76
2022/12/25 10:51:57;;;;;;;24.35;10.77;;;;;;;8.67;100.00;101032.16;5040791;28;20036;-74
2022/12/25 10:54:32;;;;;;;23.40;9.27;;;;;;;8.68;100.00;101026.06;5051478;28;20033;-76
2022/12/25 10:56:57;;;;;;;22.63;10.50;;;;;;;8.69;100.00;101018.25;5064836;28;20102;-75
2022/12/25 10:59:46;;;;;;;23.85;11.65;;;;;;;8.72;100.00;101018.34;5056192;28;20025;-76
2022/12/25 11:02:22;;;;;;;21.48;11.30;;;;;;;8.74;100.00;101000.00;5043522;28;20180;-75
2022/12/25 11:04:57;;;;;;;31.25;12.43;;;;;;;8.76;100.00;100999.22;5047290;28;20076;-75
2022/12/25 11:07:25;;;;;;;28.25;11.85;;;;;;;8.78;100.00;101002.75;5046346;28;20036;-77
2022/12/25 11:09:57;;;;;;;24.17;10.95;;;;;;;8.81;100.00;100995.81;5041715;28;20503;-74
2022/12/25 11:12:35;;;;;;;26.42;12.02;;;;;;;8.85;100.00;100987.19;5049569;28;20039;-74
2022/12/25 11:15:09;;;;;;;26.02;11.77;;;;;;;8.87;100.00;100982.84;5044431;28;20028;-77
2022/12/25 11:17:34;;;;;;;30.30;13.30;;;;;;;8.89;100.00;100976.78;5043182;28;20469;-75
2022/12/25 11:20:00;;;;;;;27.55;11.68;;;;;;;8.90;100.00;100975.06;5043494;28;20199;-72
2022/12/25 11:22:28;;;;;;;27.70;13.35;;;;;;;8.89;100.00;100979.41;5045284;28;20075;-75
2022/12/25 11:24:53;;;;;;;28.70;12.13;;;;;;;8.91;100.00;100987.31;5044642;28;20021;-75
2022/12/25 11:27:29;;;;;;;26.58;11.82;;;;;;;8.90;100.00;100981.19;5060569;28;20060;-74
2022/12/25 11:30:02;;;;;;;23.33;11.77;;;;;;;8.88;100.00;100977.63;5069602;28;20098;-75
2022/12/25 11:32:40;;;;;;;26.58;12.40;;;;;;;8.89;100.00;100983.78;5047995;28;20055;-75
2022/12/25 11:35:12;;;;;;;29.27;11.27;;;;;;;8.87;100.00;100977.59;5047236;28;20388;-74
2022/12/25 11:37:43;;;;;;;24.70;11.68;;;;;;;8.86;100.00;100968.84;5050538;28;20028;-75
2022/12/25 11:40:50;;;;;;;25.02;11.20;;;;;;;8.82;100.00;100958.22;5047184;28;20057;-73
2022/12/25 11:43:45;;;;;;;26.55;9.93;;;;;;;8.77;100.00;100964.22;5043871;28;20059;-74
2022/12/25 11:46:22;;;;;;;27.40;12.10;;;;;;;8.74;100.00;100961.53;5037419;28;20519;-75
2022/12/25 11:49:04;;;;;;;24.67;11.65;;;;;;;8.72;100.00;100963.25;5051197;28;20114;-74
2022/12/25 11:51:34;;;;;;;27.38;11.25;;;;;;;8.70;100.00;100951.81;5044326;28;20124;-74
2022/12/25 11:54:21;;;;;;;33.50;13.30;;;;;;;8.69;100.00;100944.78;5046017;28;20031;-74
2022/12/25 11:56:47;;;;;;;21.58;10.80;;;;;;;8.70;100.00;100936.06;5047095;28;20033;-75
2022/12/25 11:59:40;;;;;;;25.80;12.10;;;;;;;8.69;100.00;100923.78;5046552;28;20053;-75
2022/12/25 12:02:22;;;;;;;24.98;12.43;;;;;;;8.71;100.00;100900.25;5050990;28;20060;-77
2022/12/25 12:05:00;;;;;;;22.27;11.75;;;;;;;8.71;100.00;100898.50;5036144;28;20036;-75
2022/12/25 12:07:29;;;;;;;35.22;12.43;;;;;;;8.73;100.00;100904.66;5043128;28;20040;-76
2022/12/25 12:10:15;;;;;;;30.65;12.07;;;;;;;8.74;100.00;100910.81;5033907;28;20026;-75
2022/12/25 12:13:09;;;;;;;27.25;11.75;;;;;;;8.76;100.00;100915.25;5033015;28;20053;-77
2022/12/25 12:15:50;;;;;;;27.42;12.90;;;;;;;8.74;100.00;100916.06;5061538;28;20492;-76
2022/12/25 12:18:18;;;;;;;29.65;12.65;;;;;;;8.73;100.00;100915.16;5034047;28;20033;-76
2022/12/25 12:20:44;;;;;;;27.05;12.55;;;;;;;8.71;100.00;100911.63;5043154;28;20411;-76
2022/12/25 12:23:16;;;;;;;24.58;12.27;;;;;;;8.71;100.00;100916.00;5048758;28;20036;-74
2022/12/25 12:25:44;;;;;;;26.75;12.43;;;;;;;8.70;100.00;100909.84;5045221;28;20052;-73
2022/12/25 12:28:20;;;;;;;33.72;13.10;;;;;;;8.69;100.00;100917.69;5055968;28;20023;-76
2022/12/25 12:30:56;;;;;;;32.03;14.77;;;;;;;8.68;100.00;100905.41;5049811;28;20059;-76
2022/12/25 12:33:42;;;;;;;36.15;15.02;;;;;;;8.68;100.00;100908.03;5060448;28;20028;-78
2022/12/25 12:36:13;;;;;;;33.92;13.50;;;;;;;8.68;100.00;100906.31;5061876;28;20032;-78
2022/12/25 12:38:42;;;;;;;34.58;14.57;;;;;;;8.67;100.00;100899.28;5055926;28;20549;-78
2022/12/25 12:41:13;;;;;;;38.00;15.20;;;;;;;8.67;100.00;100899.28;5051679;28;20455;-77
2022/12/25 12:43:40;;;;;;;35.10;14.32;;;;;;;8.68;100.00;100887.94;5047858;28;20061;-79
2022/12/25 12:46:16;;;;;;;38.15;15.73;;;;;;;8.67;100.00;100878.28;5049278;28;20523;-78
2022/12/25 12:48:45;;;;;;;33.03;14.88;;;;;;;8.68;100.00;100877.44;5050398;28;20365;-77
2022/12/25 12:51:26;;;;;;;24.75;13.23;;;;;;;8.68;100.00;100863.44;5051845;28;20036;-78
2022/12/25 12:54:04;;;;;;;27.23;13.80;;;;;;;8.68;100.00;100863.44;5052736;28;20033;-76
2022/12/25 12:56:29;;;;;;;27.70;13.30;;;;;;;8.67;100.00;100851.16;5043448;28;20427;-75
2022/12/25 12:58:55;;;;;;;31.08;14.35;;;;;;;8.67;100.00;100853.78;5039800;28;20037;-77
2022/12/25 13:01:26;;;;;;;30.42;14.35;;;;;;;8.65;100.00;100845.00;5049425;28;20405;-78
2022/12/25 13:03:57;;;;;;;31.40;13.55;;;;;;;8.64;100.00;100836.25;5044789;28;20027;-76
2022/12/25 13:06:49;;;;;;;;;;;;;;;;;;;;;
2022/12/25 13:09:53;;;;;;;29.92;14.75;;;;;;;8.67;100.00;100830.16;5037927;28;20040;-76
2022/12/25 13:12:26;;;;;;;30.15;14.95;;;;;;;8.64;100.00;100833.63;5041553;28;20497;-77